sensor_id;sensor_type;location;lat;lon;timestamp;P1;durP1;ratioP1;P2;durP2;ratioP2
15490;SDS011;7847;50.930;4.336;2023-09-19T00:01:07;0.20;;;0.20;;
15490;SDS011;7847;50.930;4.336;2023-09-19T00:03:34;0.20;;;0.20;;
15490;SDS011;7847;50.930;4.336;2023-09-19T00:06:02;0.20;;;0.20;;
15490;SDS011;7847;50.930;4.336;2023-09-19T00:08:30;0.20;;;0.20;;
15490;SDS011;7847;50.930;4.336;2023-09-19T00:10:56;0.20;;;0.20;;
15490;SDS011;7847;50.930;4.336;2023-09-19T00:13:30;0.20;;;0.20;;
15490;SDS011;7847;50.930;4.336;2023-09-19T00:15:56;0.20;;;0.20;;
15490;SDS011;7847;50.930;4.336;2023-09-19T00:18:24;0.20;;;0.20;;
15490;SDS011;7847;50.930;4.336;2023-09-19T00:21:00;0.20;;;0.20;;
15490;SDS011;7847;50.930;4.336;2023-09-19T00:23:26;0.20;;;0.20;;
15490;SDS011;7847;50.930;4.336;2023-09-19T00:25:53;0.20;;;0.20;;
15490;SDS011;7847;50.930;4.336;2023-09-19T00:28:22;0.20;;;0.20;;
15490;SDS011;7847;50.930;4.336;2023-09-19T00:30:48;0.20;;;0.20;;
15490;SDS011;7847;50.930;4.336;2023-09-19T00:33:20;0.20;;;0.20;;
15490;SDS011;7847;50.930;4.336;2023-09-19T00:35:50;0.20;;;0.20;;
15490;SDS011;7847;50.930;4.336;2023-09-19T00:38:16;0.20;;;0.20;;
15490;SDS011;7847;50.930;4.336;2023-09-19T00:40:44;0.20;;;0.20;;
15490;SDS011;7847;50.930;4.336;2023-09-19T00:43:10;0.20;;;0.20;;
15490;SDS011;7847;50.930;4.336;2023-09-19T00:45:37;0.20;;;0.20;;
15490;SDS011;7847;50.930;4.336;2023-09-19T00:48:07;0.20;;;0.20;;
15490;SDS011;7847;50.930;4.336;2023-09-19T00:50:34;0.20;;;0.20;;
15490;SDS011;7847;50.930;4.336;2023-09-19T00:53:01;0.20;;;0.20;;
15490;SDS011;7847;50.930;4.336;2023-09-19T00:55:32;0.20;;;0.20;;
15490;SDS011;7847;50.930;4.336;2023-09-19T00:57:59;0.20;;;0.20;;
15490;SDS011;7847;50.930;4.336;2023-09-19T01:00:26;0.20;;;0.20;;
15490;SDS011;7847;50.930;4.336;2023-09-19T01:02:52;0.20;;;0.20;;
15490;SDS011;7847;50.930;4.336;2023-09-19T01:05:18;0.30;;;0.30;;
15490;SDS011;7847;50.930;4.336;2023-09-19T01:07:44;0.30;;;0.30;;
15490;SDS011;7847;50.930;4.336;2023-09-19T01:10:12;0.20;;;0.20;;
15490;SDS011;7847;50.930;4.336;2023-09-19T01:17:52;0.20;;;0.20;;
15490;SDS011;7847;50.930;4.336;2023-09-19T01:20:53;0.20;;;0.20;;
15490;SDS011;7847;50.930;4.336;2023-09-19T01:28:34;0.20;;;0.20;;
15490;SDS011;7847;50.930;4.336;2023-09-19T01:31:03;0.20;;;0.20;;
15490;SDS011;7847;50.930;4.336;2023-09-19T01:36:35;0.20;;;0.20;;
15490;SDS011;7847;50.930;4.336;2023-09-19T01:39:05;0.20;;;0.20;;
15490;SDS011;7847;50.930;4.336;2023-09-19T01:44:31;0.20;;;0.20;;
15490;SDS011;7847;50.930;4.336;2023-09-19T01:47:04;0.20;;;0.20;;
15490;SDS011;7847;50.930;4.336;2023-09-19T01:49:48;0.20;;;0.20;;
15490;SDS011;7847;50.930;4.336;2023-09-19T01:52:16;0.20;;;0.20;;
15490;SDS011;7847;50.930;4.336;2023-09-19T01:54:56;0.20;;;0.20;;
15490;SDS011;7847;50.930;4.336;2023-09-19T01:57:32;0.20;;;0.20;;
15490;SDS011;7847;50.930;4.336;2023-09-19T02:00:10;0.20;;;0.20;;
15490;SDS011;7847;50.930;4.336;2023-09-19T02:02:40;0.20;;;0.20;;
15490;SDS011;7847;50.930;4.336;2023-09-19T02:05:09;0.20;;;0.20;;
15490;SDS011;7847;50.930;4.336;2023-09-19T02:07:35;0.20;;;0.20;;
15490;SDS011;7847;50.930;4.336;2023-09-19T02:10:03;0.20;;;0.20;;
15490;SDS011;7847;50.930;4.336;2023-09-19T02:12:30;0.20;;;0.20;;
15490;SDS011;7847;50.930;4.336;2023-09-19T02:14:58;0.20;;;0.20;;
15490;SDS011;7847;50.930;4.336;2023-09-19T02:17:24;0.20;;;0.20;;
15490;SDS011;7847;50.930;4.336;2023-09-19T02:19:51;0.20;;;0.20;;
15490;SDS011;7847;50.930;4.336;2023-09-19T02:22:17;0.20;;;0.20;;
15490;SDS011;7847;50.930;4.336;2023-09-19T02:24:44;0.20;;;0.20;;
15490;SDS011;7847;50.930;4.336;2023-09-19T02:27:13;0.20;;;0.20;;
15490;SDS011;7847;50.930;4.336;2023-09-19T02:29:41;0.30;;;0.30;;
15490;SDS011;7847;50.930;4.336;2023-09-19T02:32:07;0.20;;;0.20;;
15490;SDS011;7847;50.930;4.336;2023-09-19T02:34:34;0.30;;;0.30;;
15490;SDS011;7847;50.930;4.336;2023-09-19T02:37:02;0.20;;;0.20;;
15490;SDS011;7847;50.930;4.336;2023-09-19T02:39:30;0.20;;;0.20;;
15490;SDS011;7847;50.930;4.336;2023-09-19T02:41:56;0.20;;;0.20;;
15490;SDS011;7847;50.930;4.336;2023-09-19T02:44:22;0.20;;;0.20;;
15490;SDS011;7847;50.930;4.336;2023-09-19T02:46:49;0.20;;;0.20;;
15490;SDS011;7847;50.930;4.336;2023-09-19T02:49:15;0.30;;;0.30;;
15490;SDS011;7847;50.930;4.336;2023-09-19T02:51:42;0.20;;;0.20;;
15490;SDS011;7847;50.930;4.336;2023-09-19T02:54:08;0.30;;;0.30;;
15490;SDS011;7847;50.930;4.336;2023-09-19T02:56:35;0.20;;;0.20;;
15490;SDS011;7847;50.930;4.336;2023-09-19T02:59:01;0.20;;;0.20;;
15490;SDS011;7847;50.930;4.336;2023-09-19T03:01:28;0.20;;;0.20;;
15490;SDS011;7847;50.930;4.336;2023-09-19T03:03:54;0.20;;;0.20;;
15490;SDS011;7847;50.930;4.336;2023-09-19T03:06:20;0.20;;;0.20;;
15490;SDS011;7847;50.930;4.336;2023-09-19T03:08:46;0.20;;;0.20;;
15490;SDS011;7847;50.930;4.336;2023-09-19T03:11:13;0.20;;;0.20;;
15490;SDS011;7847;50.930;4.336;2023-09-19T03:13:41;0.30;;;0.30;;
15490;SDS011;7847;50.930;4.336;2023-09-19T03:16:07;0.20;;;0.20;;
15490;SDS011;7847;50.930;4.336;2023-09-19T03:18:34;0.20;;;0.20;;
15490;SDS011;7847;50.930;4.336;2023-09-19T03:21:00;0.20;;;0.20;;
15490;SDS011;7847;50.930;4.336;2023-09-19T03:23:27;0.20;;;0.20;;
15490;SDS011;7847;50.930;4.336;2023-09-19T03:25:53;0.20;;;0.20;;
15490;SDS011;7847;50.930;4.336;2023-09-19T03:28:20;0.20;;;0.20;;
15490;SDS011;7847;50.930;4.336;2023-09-19T03:30:56;0.20;;;0.20;;
15490;SDS011;7847;50.930;4.336;2023-09-19T03:33:22;0.20;;;0.20;;
15490;SDS011;7847;50.930;4.336;2023-09-19T03:35:52;0.20;;;0.20;;
15490;SDS011;7847;50.930;4.336;2023-09-19T03:38:18;0.20;;;0.20;;
15490;SDS011;7847;50.930;4.336;2023-09-19T03:40:44;0.20;;;0.20;;
15490;SDS011;7847;50.930;4.336;2023-09-19T03:43:11;0.20;;;0.20;;
15490;SDS011;7847;50.930;4.336;2023-09-19T03:45:37;0.20;;;0.20;;
15490;SDS011;7847;50.930;4.336;2023-09-19T03:48:08;0.20;;;0.20;;
15490;SDS011;7847;50.930;4.336;2023-09-19T03:50:34;0.20;;;0.20;;
15490;SDS011;7847;50.930;4.336;2023-09-19T03:53:00;0.20;;;0.20;;
15490;SDS011;7847;50.930;4.336;2023-09-19T03:55:27;0.30;;;0.30;;
15490;SDS011;7847;50.930;4.336;2023-09-19T03:57:53;0.20;;;0.20;;
15490;SDS011;7847;50.930;4.336;2023-09-19T04:00:19;0.20;;;0.20;;
15490;SDS011;7847;50.930;4.336;2023-09-19T04:02:47;0.20;;;0.20;;
15490;SDS011;7847;50.930;4.336;2023-09-19T04:05:13;0.20;;;0.20;;
15490;SDS011;7847;50.930;4.336;2023-09-19T04:07:39;0.30;;;0.30;;
15490;SDS011;7847;50.930;4.336;2023-09-19T04:10:05;0.20;;;0.20;;
15490;SDS011;7847;50.930;4.336;2023-09-19T04:12:34;0.30;;;0.30;;
15490;SDS011;7847;50.930;4.336;2023-09-19T04:15:00;0.20;;;0.20;;
15490;SDS011;7847;50.930;4.336;2023-09-19T04:17:26;0.30;;;0.30;;
15490;SDS011;7847;50.930;4.336;2023-09-19T04:19:52;0.30;;;0.30;;
15490;SDS011;7847;50.930;4.336;2023-09-19T04:22:21;0.20;;;0.20;;
15490;SDS011;7847;50.930;4.336;2023-09-19T04:24:47;0.20;;;0.20;;
15490;SDS011;7847;50.930;4.336;2023-09-19T04:27:13;0.30;;;0.30;;
15490;SDS011;7847;50.930;4.336;2023-09-19T04:29:39;0.20;;;0.20;;
15490;SDS011;7847;50.930;4.336;2023-09-19T04:32:06;0.20;;;0.20;;
15490;SDS011;7847;50.930;4.336;2023-09-19T04:34:33;0.20;;;0.20;;
15490;SDS011;7847;50.930;4.336;2023-09-19T04:37:05;0.20;;;0.20;;
15490;SDS011;7847;50.930;4.336;2023-09-19T04:39:31;0.20;;;0.20;;
15490;SDS011;7847;50.930;4.336;2023-09-19T04:41:57;0.20;;;0.20;;
15490;SDS011;7847;50.930;4.336;2023-09-19T04:44:23;0.20;;;0.20;;
15490;SDS011;7847;50.930;4.336;2023-09-19T04:46:49;0.20;;;0.20;;
15490;SDS011;7847;50.930;4.336;2023-09-19T04:49:15;0.20;;;0.20;;
15490;SDS011;7847;50.930;4.336;2023-09-19T04:51:43;0.30;;;0.30;;
15490;SDS011;7847;50.930;4.336;2023-09-19T04:54:11;0.20;;;0.20;;
15490;SDS011;7847;50.930;4.336;2023-09-19T04:56:38;0.20;;;0.20;;
15490;SDS011;7847;50.930;4.336;2023-09-19T04:59:05;0.20;;;0.20;;
15490;SDS011;7847;50.930;4.336;2023-09-19T05:01:31;0.30;;;0.30;;
15490;SDS011;7847;50.930;4.336;2023-09-19T05:03:57;0.20;;;0.20;;
15490;SDS011;7847;50.930;4.336;2023-09-19T05:06:23;0.20;;;0.20;;
15490;SDS011;7847;50.930;4.336;2023-09-19T05:08:51;0.20;;;0.20;;
15490;SDS011;7847;50.930;4.336;2023-09-19T05:11:18;0.20;;;0.20;;
15490;SDS011;7847;50.930;4.336;2023-09-19T05:13:45;0.20;;;0.20;;
15490;SDS011;7847;50.930;4.336;2023-09-19T05:16:11;0.20;;;0.20;;
15490;SDS011;7847;50.930;4.336;2023-09-19T05:18:37;0.20;;;0.20;;
15490;SDS011;7847;50.930;4.336;2023-09-19T05:21:03;0.20;;;0.20;;
15490;SDS011;7847;50.930;4.336;2023-09-19T05:23:29;0.20;;;0.20;;
15490;SDS011;7847;50.930;4.336;2023-09-19T05:25:56;0.20;;;0.20;;
15490;SDS011;7847;50.930;4.336;2023-09-19T05:28:24;0.20;;;0.20;;
15490;SDS011;7847;50.930;4.336;2023-09-19T05:30:51;0.20;;;0.20;;
15490;SDS011;7847;50.930;4.336;2023-09-19T05:33:18;0.30;;;0.30;;
15490;SDS011;7847;50.930;4.336;2023-09-19T05:35:44;0.20;;;0.20;;
15490;SDS011;7847;50.930;4.336;2023-09-19T05:38:15;0.20;;;0.20;;
15490;SDS011;7847;50.930;4.336;2023-09-19T05:40:44;0.20;;;0.20;;
15490;SDS011;7847;50.930;4.336;2023-09-19T05:43:10;0.20;;;0.20;;
15490;SDS011;7847;50.930;4.336;2023-09-19T05:45:36;0.20;;;0.20;;
15490;SDS011;7847;50.930;4.336;2023-09-19T05:48:12;0.28;;;0.28;;
15490;SDS011;7847;50.930;4.336;2023-09-19T05:50:42;0.20;;;0.20;;
15490;SDS011;7847;50.930;4.336;2023-09-19T05:53:08;0.30;;;0.30;;
15490;SDS011;7847;50.930;4.336;2023-09-19T05:55:37;0.20;;;0.20;;
15490;SDS011;7847;50.930;4.336;2023-09-19T05:58:03;0.20;;;0.20;;
15490;SDS011;7847;50.930;4.336;2023-09-19T06:00:30;0.20;;;0.20;;
15490;SDS011;7847;50.930;4.336;2023-09-19T06:02:57;0.20;;;0.20;;
15490;SDS011;7847;50.930;4.336;2023-09-19T06:05:24;0.30;;;0.30;;
15490;SDS011;7847;50.930;4.336;2023-09-19T06:07:51;0.20;;;0.20;;
15490;SDS011;7847;50.930;4.336;2023-09-19T06:10:18;0.20;;;0.20;;
15490;SDS011;7847;50.930;4.336;2023-09-19T06:12:45;0.20;;;0.20;;
15490;SDS011;7847;50.930;4.336;2023-09-19T06:15:13;0.20;;;0.20;;
15490;SDS011;7847;50.930;4.336;2023-09-19T06:17:50;0.20;;;0.20;;
15490;SDS011;7847;50.930;4.336;2023-09-19T06:20:20;0.20;;;0.20;;
15490;SDS011;7847;50.930;4.336;2023-09-19T06:22:47;0.20;;;0.20;;
15490;SDS011;7847;50.930;4.336;2023-09-19T06:25:14;0.20;;;0.20;;
15490;SDS011;7847;50.930;4.336;2023-09-19T06:30:12;0.20;;;0.20;;
15490;SDS011;7847;50.930;4.336;2023-09-19T06:32:39;0.20;;;0.20;;
15490;SDS011;7847;50.930;4.336;2023-09-19T06:35:09;0.20;;;0.20;;
15490;SDS011;7847;50.930;4.336;2023-09-19T06:37:36;0.30;;;0.30;;
15490;SDS011;7847;50.930;4.336;2023-09-19T06:40:12;0.20;;;0.20;;
15490;SDS011;7847;50.930;4.336;2023-09-19T06:42:39;0.20;;;0.20;;
15490;SDS011;7847;50.930;4.336;2023-09-19T06:45:05;0.20;;;0.20;;
15490;SDS011;7847;50.930;4.336;2023-09-19T06:47:32;0.20;;;0.20;;
15490;SDS011;7847;50.930;4.336;2023-09-19T06:49:58;0.20;;;0.20;;
15490;SDS011;7847;50.930;4.336;2023-09-19T06:52:24;0.20;;;0.20;;
15490;SDS011;7847;50.930;4.336;2023-09-19T06:54:52;0.20;;;0.20;;
15490;SDS011;7847;50.930;4.336;2023-09-19T06:57:18;0.30;;;0.30;;
15490;SDS011;7847;50.930;4.336;2023-09-19T06:59:45;0.20;;;0.20;;
15490;SDS011;7847;50.930;4.336;2023-09-19T07:02:11;0.30;;;0.30;;
15490;SDS011;7847;50.930;4.336;2023-09-19T07:04:38;0.20;;;0.20;;
15490;SDS011;7847;50.930;4.336;2023-09-19T07:07:05;0.20;;;0.20;;
15490;SDS011;7847;50.930;4.336;2023-09-19T07:09:34;0.20;;;0.20;;
15490;SDS011;7847;50.930;4.336;2023-09-19T07:12:00;0.20;;;0.20;;
15490;SDS011;7847;50.930;4.336;2023-09-19T07:14:26;0.20;;;0.20;;
15490;SDS011;7847;50.930;4.336;2023-09-19T07:16:53;0.20;;;0.20;;
15490;SDS011;7847;50.930;4.336;2023-09-19T07:19:19;0.20;;;0.20;;
15490;SDS011;7847;50.930;4.336;2023-09-19T07:21:45;0.30;;;0.30;;
15490;SDS011;7847;50.930;4.336;2023-09-19T07:24:12;0.20;;;0.20;;
15490;SDS011;7847;50.930;4.336;2023-09-19T07:26:38;0.20;;;0.20;;
15490;SDS011;7847;50.930;4.336;2023-09-19T07:29:05;0.20;;;0.20;;
15490;SDS011;7847;50.930;4.336;2023-09-19T07:31:31;0.20;;;0.20;;
15490;SDS011;7847;50.930;4.336;2023-09-19T07:33:58;0.20;;;0.20;;
15490;SDS011;7847;50.930;4.336;2023-09-19T07:36:25;0.20;;;0.20;;
15490;SDS011;7847;50.930;4.336;2023-09-19T07:38:54;0.20;;;0.20;;
15490;SDS011;7847;50.930;4.336;2023-09-19T07:41:23;0.20;;;0.20;;
15490;SDS011;7847;50.930;4.336;2023-09-19T07:43:49;0.20;;;0.20;;
15490;SDS011;7847;50.930;4.336;2023-09-19T07:46:15;0.20;;;0.20;;
15490;SDS011;7847;50.930;4.336;2023-09-19T07:48:41;0.30;;;0.30;;
15490;SDS011;7847;50.930;4.336;2023-09-19T07:51:13;0.20;;;0.20;;
15490;SDS011;7847;50.930;4.336;2023-09-19T07:53:41;0.20;;;0.20;;
15490;SDS011;7847;50.930;4.336;2023-09-19T07:56:08;0.20;;;0.20;;
15490;SDS011;7847;50.930;4.336;2023-09-19T07:58:34;0.20;;;0.20;;
15490;SDS011;7847;50.930;4.336;2023-09-19T08:01:05;0.20;;;0.20;;
15490;SDS011;7847;50.930;4.336;2023-09-19T08:03:32;0.20;;;0.20;;
15490;SDS011;7847;50.930;4.336;2023-09-19T08:05:59;0.20;;;0.20;;
15490;SDS011;7847;50.930;4.336;2023-09-19T08:08:25;0.20;;;0.20;;
15490;SDS011;7847;50.930;4.336;2023-09-19T08:10:55;0.20;;;0.20;;
15490;SDS011;7847;50.930;4.336;2023-09-19T08:13:24;0.10;;;0.10;;
15490;SDS011;7847;50.930;4.336;2023-09-19T08:15:51;0.20;;;0.20;;
15490;SDS011;7847;50.930;4.336;2023-09-19T08:18:21;0.20;;;0.20;;
15490;SDS011;7847;50.930;4.336;2023-09-19T08:20:51;0.20;;;0.20;;
15490;SDS011;7847;50.930;4.336;2023-09-19T08:23:17;0.20;;;0.20;;
15490;SDS011;7847;50.930;4.336;2023-09-19T08:25:45;0.20;;;0.20;;
15490;SDS011;7847;50.930;4.336;2023-09-19T08:28:11;0.20;;;0.20;;
15490;SDS011;7847;50.930;4.336;2023-09-19T08:30:39;0.20;;;0.20;;
15490;SDS011;7847;50.930;4.336;2023-09-19T08:33:06;0.20;;;0.20;;
15490;SDS011;7847;50.930;4.336;2023-09-19T08:35:32;0.20;;;0.20;;
15490;SDS011;7847;50.930;4.336;2023-09-19T08:37:58;0.20;;;0.20;;
15490;SDS011;7847;50.930;4.336;2023-09-19T08:40:32;0.20;;;0.20;;
15490;SDS011;7847;50.930;4.336;2023-09-19T08:42:59;0.20;;;0.20;;
15490;SDS011;7847;50.930;4.336;2023-09-19T08:45:25;0.20;;;0.20;;
15490;SDS011;7847;50.930;4.336;2023-09-19T08:50:47;0.20;;;0.20;;
15490;SDS011;7847;50.930;4.336;2023-09-19T08:53:16;0.20;;;0.20;;
15490;SDS011;7847;50.930;4.336;2023-09-19T08:55:45;0.20;;;0.20;;
15490;SDS011;7847;50.930;4.336;2023-09-19T08:58:13;0.20;;;0.20;;
15490;SDS011;7847;50.930;4.336;2023-09-19T09:00:44;0.20;;;0.20;;
15490;SDS011;7847;50.930;4.336;2023-09-19T09:03:11;0.10;;;0.10;;
15490;SDS011;7847;50.930;4.336;2023-09-19T09:05:39;0.20;;;0.20;;
15490;SDS011;7847;50.930;4.336;2023-09-19T09:08:08;0.20;;;0.20;;
15490;SDS011;7847;50.930;4.336;2023-09-19T09:10:35;0.20;;;0.20;;
15490;SDS011;7847;50.930;4.336;2023-09-19T09:13:03;0.20;;;0.20;;
15490;SDS011;7847;50.930;4.336;2023-09-19T09:15:31;0.20;;;0.20;;
15490;SDS011;7847;50.930;4.336;2023-09-19T09:18:01;0.20;;;0.20;;
15490;SDS011;7847;50.930;4.336;2023-09-19T09:20:28;0.10;;;0.10;;
15490;SDS011;7847;50.930;4.336;2023-09-19T09:22:55;0.10;;;0.10;;
15490;SDS011;7847;50.930;4.336;2023-09-19T09:25:46;0.10;;;0.10;;
15490;SDS011;7847;50.930;4.336;2023-09-19T09:28:11;0.20;;;0.20;;
15490;SDS011;7847;50.930;4.336;2023-09-19T09:30:37;0.10;;;0.10;;
15490;SDS011;7847;50.930;4.336;2023-09-19T09:33:10;0.10;;;0.10;;
15490;SDS011;7847;50.930;4.336;2023-09-19T09:35:37;0.20;;;0.20;;
15490;SDS011;7847;50.930;4.336;2023-09-19T09:38:07;0.20;;;0.20;;
15490;SDS011;7847;50.930;4.336;2023-09-19T09:40:50;0.10;;;0.10;;
15490;SDS011;7847;50.930;4.336;2023-09-19T09:43:38;0.10;;;0.10;;
15490;SDS011;7847;50.930;4.336;2023-09-19T09:46:09;0.20;;;0.20;;
15490;SDS011;7847;50.930;4.336;2023-09-19T09:48:55;0.20;;;0.20;;
15490;SDS011;7847;50.930;4.336;2023-09-19T09:51:45;0.10;;;0.10;;
15490;SDS011;7847;50.930;4.336;2023-09-19T09:54:22;0.10;;;0.10;;
15490;SDS011;7847;50.930;4.336;2023-09-19T09:56:52;0.20;;;0.20;;
15490;SDS011;7847;50.930;4.336;2023-09-19T09:59:19;0.10;;;0.10;;
15490;SDS011;7847;50.930;4.336;2023-09-19T10:01:48;0.10;;;0.10;;
15490;SDS011;7847;50.930;4.336;2023-09-19T10:04:28;0.10;;;0.10;;
15490;SDS011;7847;50.930;4.336;2023-09-19T10:07:01;0.20;;;0.20;;
15490;SDS011;7847;50.930;4.336;2023-09-19T10:09:44;0.15;;;0.15;;
15490;SDS011;7847;50.930;4.336;2023-09-19T10:12:12;0.20;;;0.20;;
15490;SDS011;7847;50.930;4.336;2023-09-19T10:14:38;0.20;;;0.20;;
15490;SDS011;7847;50.930;4.336;2023-09-19T10:17:06;0.15;;;0.15;;
15490;SDS011;7847;50.930;4.336;2023-09-19T10:22:11;0.10;;;0.10;;
15490;SDS011;7847;50.930;4.336;2023-09-19T10:24:39;0.10;;;0.10;;
15490;SDS011;7847;50.930;4.336;2023-09-19T10:27:06;0.20;;;0.20;;
15490;SDS011;7847;50.930;4.336;2023-09-19T10:29:36;0.17;;;0.17;;
15490;SDS011;7847;50.930;4.336;2023-09-19T10:32:05;0.13;;;0.13;;
15490;SDS011;7847;50.930;4.336;2023-09-19T10:34:34;0.20;;;0.20;;
15490;SDS011;7847;50.930;4.336;2023-09-19T10:37:02;0.10;;;0.10;;
15490;SDS011;7847;50.930;4.336;2023-09-19T10:39:30;0.10;;;0.10;;
15490;SDS011;7847;50.930;4.336;2023-09-19T10:41:57;0.20;;;0.20;;
15490;SDS011;7847;50.930;4.336;2023-09-19T10:44:30;0.10;;;0.10;;
15490;SDS011;7847;50.930;4.336;2023-09-19T10:46:57;0.10;;;0.10;;
15490;SDS011;7847;50.930;4.336;2023-09-19T10:49:24;0.10;;;0.10;;
15490;SDS011;7847;50.930;4.336;2023-09-19T10:51:53;0.10;;;0.10;;
15490;SDS011;7847;50.930;4.336;2023-09-19T10:54:23;0.10;;;0.10;;
15490;SDS011;7847;50.930;4.336;2023-09-19T10:56:51;0.10;;;0.10;;
15490;SDS011;7847;50.930;4.336;2023-09-19T10:59:19;0.10;;;0.10;;
15490;SDS011;7847;50.930;4.336;2023-09-19T11:01:50;0.10;;;0.10;;
15490;SDS011;7847;50.930;4.336;2023-09-19T11:04:29;0.10;;;0.10;;
15490;SDS011;7847;50.930;4.336;2023-09-19T11:09:54;0.10;;;0.10;;
15490;SDS011;7847;50.930;4.336;2023-09-19T11:14:56;0.10;;;0.10;;
15490;SDS011;7847;50.930;4.336;2023-09-19T11:30:52;0.10;;;0.10;;
15490;SDS011;7847;50.930;4.336;2023-09-19T11:41:57;0.10;;;0.10;;
15490;SDS011;7847;50.930;4.336;2023-09-19T11:49:25;0.10;;;0.10;;
15490;SDS011;7847;50.930;4.336;2023-09-19T11:51:54;0.15;;;0.15;;
15490;SDS011;7847;50.930;4.336;2023-09-19T11:54:21;0.10;;;0.10;;
15490;SDS011;7847;50.930;4.336;2023-09-19T11:56:48;0.10;;;0.10;;
15490;SDS011;7847;50.930;4.336;2023-09-19T11:59:26;0.10;;;0.10;;
15490;SDS011;7847;50.930;4.336;2023-09-19T12:02:03;0.10;;;0.10;;
15490;SDS011;7847;50.930;4.336;2023-09-19T12:04:40;0.10;;;0.10;;
15490;SDS011;7847;50.930;4.336;2023-09-19T12:07:12;0.10;;;0.10;;
15490;SDS011;7847;50.930;4.336;2023-09-19T12:09:44;0.10;;;0.10;;
15490;SDS011;7847;50.930;4.336;2023-09-19T12:12:22;0.10;;;0.10;;
15490;SDS011;7847;50.930;4.336;2023-09-19T12:14:52;0.10;;;0.10;;
15490;SDS011;7847;50.930;4.336;2023-09-19T12:17:19;0.10;;;0.10;;
15490;SDS011;7847;50.930;4.336;2023-09-19T12:19:52;0.10;;;0.10;;
15490;SDS011;7847;50.930;4.336;2023-09-19T12:22:18;0.10;;;0.10;;
15490;SDS011;7847;50.930;4.336;2023-09-19T12:24:45;0.10;;;0.10;;
15490;SDS011;7847;50.930;4.336;2023-09-19T12:27:11;0.10;;;0.10;;
15490;SDS011;7847;50.930;4.336;2023-09-19T12:29:45;0.10;;;0.10;;
15490;SDS011;7847;50.930;4.336;2023-09-19T12:32:13;0.10;;;0.10;;
15490;SDS011;7847;50.930;4.336;2023-09-19T12:34:41;0.10;;;0.10;;
15490;SDS011;7847;50.930;4.336;2023-09-19T12:39:44;0.10;;;0.10;;
15490;SDS011;7847;50.930;4.336;2023-09-19T12:42:18;0.10;;;0.10;;
15490;SDS011;7847;50.930;4.336;2023-09-19T12:44:45;0.10;;;0.10;;
15490;SDS011;7847;50.930;4.336;2023-09-19T12:47:16;0.10;;;0.10;;
15490;SDS011;7847;50.930;4.336;2023-09-19T12:52:37;0.10;;;0.10;;
15490;SDS011;7847;50.930;4.336;2023-09-19T12:55:03;0.10;;;0.10;;
15490;SDS011;7847;50.930;4.336;2023-09-19T12:57:31;0.00;;;0.00;;
15490;SDS011;7847;50.930;4.336;2023-09-19T13:00:00;0.10;;;0.10;;
15490;SDS011;7847;50.930;4.336;2023-09-19T13:02:26;0.10;;;0.10;;
15490;SDS011;7847;50.930;4.336;2023-09-19T13:04:53;0.10;;;0.10;;
15490;SDS011;7847;50.930;4.336;2023-09-19T13:07:43;0.10;;;0.10;;
15490;SDS011;7847;50.930;4.336;2023-09-19T13:10:11;0.10;;;0.10;;
15490;SDS011;7847;50.930;4.336;2023-09-19T13:12:40;0.13;;;0.13;;
15490;SDS011;7847;50.930;4.336;2023-09-19T13:15:11;0.10;;;0.10;;
15490;SDS011;7847;50.930;4.336;2023-09-19T13:17:56;0.10;;;0.10;;
15490;SDS011;7847;50.930;4.336;2023-09-19T13:20:25;0.10;;;0.10;;
15490;SDS011;7847;50.930;4.336;2023-09-19T13:22:57;0.10;;;0.10;;
15490;SDS011;7847;50.930;4.336;2023-09-19T13:25:33;0.10;;;0.10;;
15490;SDS011;7847;50.930;4.336;2023-09-19T13:27:59;0.10;;;0.10;;
15490;SDS011;7847;50.930;4.336;2023-09-19T13:30:29;0.08;;;0.08;;
15490;SDS011;7847;50.930;4.336;2023-09-19T13:33:09;0.10;;;0.10;;
15490;SDS011;7847;50.930;4.336;2023-09-19T13:35:36;0.10;;;0.10;;
15490;SDS011;7847;50.930;4.336;2023-09-19T13:38:03;0.10;;;0.10;;
15490;SDS011;7847;50.930;4.336;2023-09-19T13:40:31;0.10;;;0.10;;
15490;SDS011;7847;50.930;4.336;2023-09-19T13:43:00;0.10;;;0.10;;
15490;SDS011;7847;50.930;4.336;2023-09-19T13:45:26;0.10;;;0.10;;
15490;SDS011;7847;50.930;4.336;2023-09-19T13:47:55;0.10;;;0.10;;
15490;SDS011;7847;50.930;4.336;2023-09-19T13:50:21;0.10;;;0.10;;
15490;SDS011;7847;50.930;4.336;2023-09-19T13:52:51;0.10;;;0.10;;
15490;SDS011;7847;50.930;4.336;2023-09-19T13:55:18;0.10;;;0.10;;
15490;SDS011;7847;50.930;4.336;2023-09-19T13:57:48;0.10;;;0.10;;
15490;SDS011;7847;50.930;4.336;2023-09-19T14:00:15;0.10;;;0.10;;
15490;SDS011;7847;50.930;4.336;2023-09-19T14:02:42;0.10;;;0.10;;
15490;SDS011;7847;50.930;4.336;2023-09-19T14:05:11;0.10;;;0.10;;
15490;SDS011;7847;50.930;4.336;2023-09-19T14:07:42;0.10;;;0.10;;
15490;SDS011;7847;50.930;4.336;2023-09-19T14:10:08;0.10;;;0.10;;
15490;SDS011;7847;50.930;4.336;2023-09-19T14:12:35;0.10;;;0.10;;
15490;SDS011;7847;50.930;4.336;2023-09-19T14:15:02;0.17;;;0.17;;
15490;SDS011;7847;50.930;4.336;2023-09-19T14:17:28;0.10;;;0.10;;
15490;SDS011;7847;50.930;4.336;2023-09-19T14:19:54;0.10;;;0.10;;
15490;SDS011;7847;50.930;4.336;2023-09-19T14:22:20;0.20;;;0.20;;
15490;SDS011;7847;50.930;4.336;2023-09-19T14:24:47;0.00;;;0.00;;
15490;SDS011;7847;50.930;4.336;2023-09-19T14:27:13;0.00;;;0.00;;
15490;SDS011;7847;50.930;4.336;2023-09-19T14:29:39;0.10;;;0.10;;
15490;SDS011;7847;50.930;4.336;2023-09-19T14:32:06;0.10;;;0.10;;
15490;SDS011;7847;50.930;4.336;2023-09-19T14:34:32;0.10;;;0.10;;
15490;SDS011;7847;50.930;4.336;2023-09-19T14:36:58;0.10;;;0.10;;
15490;SDS011;7847;50.930;4.336;2023-09-19T14:39:24;0.10;;;0.10;;
15490;SDS011;7847;50.930;4.336;2023-09-19T14:41:51;0.10;;;0.10;;
15490;SDS011;7847;50.930;4.336;2023-09-19T14:44:17;0.10;;;0.10;;
15490;SDS011;7847;50.930;4.336;2023-09-19T14:46:43;0.10;;;0.10;;
15490;SDS011;7847;50.930;4.336;2023-09-19T14:49:10;0.10;;;0.10;;
15490;SDS011;7847;50.930;4.336;2023-09-19T14:51:37;0.10;;;0.10;;
15490;SDS011;7847;50.930;4.336;2023-09-19T14:54:04;0.10;;;0.10;;
15490;SDS011;7847;50.930;4.336;2023-09-19T14:56:32;0.10;;;0.10;;
15490;SDS011;7847;50.930;4.336;2023-09-19T14:58:58;0.10;;;0.10;;
15490;SDS011;7847;50.930;4.336;2023-09-19T15:01:24;0.10;;;0.10;;
15490;SDS011;7847;50.930;4.336;2023-09-19T15:03:50;0.10;;;0.10;;
15490;SDS011;7847;50.930;4.336;2023-09-19T15:06:19;0.10;;;0.10;;
15490;SDS011;7847;50.930;4.336;2023-09-19T15:08:45;0.10;;;0.10;;
15490;SDS011;7847;50.930;4.336;2023-09-19T15:11:18;0.10;;;0.10;;
15490;SDS011;7847;50.930;4.336;2023-09-19T15:13:45;0.10;;;0.10;;
15490;SDS011;7847;50.930;4.336;2023-09-19T15:16:12;0.10;;;0.10;;
15490;SDS011;7847;50.930;4.336;2023-09-19T15:18:42;0.10;;;0.10;;
15490;SDS011;7847;50.930;4.336;2023-09-19T15:21:11;0.10;;;0.10;;
15490;SDS011;7847;50.930;4.336;2023-09-19T15:23:39;0.10;;;0.10;;
15490;SDS011;7847;50.930;4.336;2023-09-19T15:26:06;0.10;;;0.10;;
15490;SDS011;7847;50.930;4.336;2023-09-19T15:28:33;0.10;;;0.10;;
15490;SDS011;7847;50.930;4.336;2023-09-19T15:31:04;0.20;;;0.20;;
15490;SDS011;7847;50.930;4.336;2023-09-19T15:33:31;0.10;;;0.10;;
15490;SDS011;7847;50.930;4.336;2023-09-19T15:36:04;0.20;;;0.20;;
15490;SDS011;7847;50.930;4.336;2023-09-19T15:38:30;0.10;;;0.10;;
15490;SDS011;7847;50.930;4.336;2023-09-19T15:40:57;0.20;;;0.20;;
15490;SDS011;7847;50.930;4.336;2023-09-19T15:43:23;0.10;;;0.10;;
15490;SDS011;7847;50.930;4.336;2023-09-19T15:45:49;0.10;;;0.10;;
15490;SDS011;7847;50.930;4.336;2023-09-19T15:48:15;0.10;;;0.10;;
15490;SDS011;7847;50.930;4.336;2023-09-19T15:50:42;0.10;;;0.10;;
15490;SDS011;7847;50.930;4.336;2023-09-19T15:53:09;0.10;;;0.10;;
15490;SDS011;7847;50.930;4.336;2023-09-19T15:55:40;0.10;;;0.10;;
15490;SDS011;7847;50.930;4.336;2023-09-19T15:58:07;0.10;;;0.10;;
15490;SDS011;7847;50.930;4.336;2023-09-19T16:00:33;0.20;;;0.20;;
15490;SDS011;7847;50.930;4.336;2023-09-19T16:03:01;0.20;;;0.20;;
15490;SDS011;7847;50.930;4.336;2023-09-19T16:05:27;0.10;;;0.10;;
15490;SDS011;7847;50.930;4.336;2023-09-19T16:07:53;0.10;;;0.10;;
15490;SDS011;7847;50.930;4.336;2023-09-19T16:10:19;0.10;;;0.10;;